createdAt,value
2023-01-11T00:02:32.478Z,10.90
2023-01-11T00:07:34.272Z,11.00
2023-01-11T00:12:36.094Z,11.10
2023-01-11T00:17:37.847Z,11.10
2023-01-11T00:22:39.672Z,11.10
2023-01-11T00:27:41.569Z,11.10
2023-01-11T00:32:44.023Z,11.00
2023-01-11T00:37:45.808Z,11.00
2023-01-11T00:43:06.302Z,11.00
2023-01-11T00:48:09.716Z,11.00
2023-01-11T00:53:11.681Z,11.00
2023-01-11T00:58:13.470Z,11.00
2023-01-11T01:03:15.241Z,11.10
2023-01-11T01:08:17.039Z,11.00
2023-01-11T01:13:37.333Z,11.00
2023-01-11T01:18:39.062Z,11.00
2023-01-11T01:23:40.863Z,11.10
2023-01-11T01:28:43.015Z,11.00
2023-01-11T01:33:44.934Z,11.10
2023-01-11T01:38:46.879Z,11.10
2023-01-11T01:43:57.736Z,11.20
2023-01-11T01:49:12.312Z,11.20
2023-01-11T01:54:19.433Z,11.20
2023-01-11T01:59:23.864Z,11.20
2023-01-11T02:04:44.775Z,11.20
2023-01-11T02:09:55.401Z,11.20
2023-01-11T02:15:00.364Z,11.20
2023-01-11T02:20:29.211Z,11.30
2023-01-11T02:25:58.220Z,11.30
2023-01-11T02:31:36.463Z,11.30
2023-01-11T02:37:02.156Z,11.30
2023-01-11T02:42:44.341Z,11.40
2023-01-11T02:48:01.145Z,11.40
2023-01-11T02:53:36.765Z,11.40
2023-01-11T02:58:42.401Z,11.40
2023-01-11T03:03:44.272Z,11.40
2023-01-11T03:08:57.858Z,11.40
2023-01-11T03:14:47.291Z,11.40
2023-01-11T03:19:53.312Z,11.50
2023-01-11T03:25:12.098Z,11.50
2023-01-11T03:30:42.417Z,11.50
2023-01-11T03:35:58.764Z,11.50
2023-01-11T03:41:09.844Z,11.40
2023-01-11T03:46:36.702Z,11.50
2023-01-11T03:51:46.664Z,11.50
2023-01-11T03:56:59.542Z,11.40
2023-01-11T04:02:02.109Z,11.50
2023-01-11T04:07:03.852Z,11.50
2023-01-11T04:12:06.306Z,11.50
2023-01-11T04:17:08.135Z,11.40
2023-01-11T04:22:11.216Z,11.40
2023-01-11T04:27:13.044Z,11.40
2023-01-11T04:32:15.211Z,11.40
2023-01-11T04:37:17.034Z,11.40
2023-01-11T04:42:18.813Z,11.40
2023-01-11T04:47:23.049Z,11.40
2023-01-11T04:52:24.831Z,11.30
2023-01-11T04:57:26.932Z,11.40
2023-01-11T05:02:28.740Z,11.30
2023-01-11T05:07:30.603Z,11.40
2023-01-11T05:12:32.440Z,11.50
2023-01-11T05:17:34.307Z,11.50
2023-01-11T05:22:36.169Z,11.60
2023-01-11T05:27:37.932Z,11.70
2023-01-11T05:32:39.679Z,11.70
2023-01-11T05:37:41.436Z,11.70
2023-01-11T05:42:45.464Z,11.60
2023-01-11T05:47:47.486Z,11.50
2023-01-11T05:52:49.292Z,11.50
2023-01-11T05:57:51.074Z,11.50
2023-01-11T06:02:53.092Z,11.40
2023-01-11T06:07:55.201Z,11.40
2023-01-11T06:13:16.945Z,11.40
2023-01-11T06:18:20.641Z,11.40
2023-01-11T06:23:23.493Z,11.30
2023-01-11T06:28:25.384Z,11.20
2023-01-11T06:33:28.802Z,11.20
2023-01-11T06:38:30.571Z,11.20
2023-01-11T06:43:32.831Z,11.20
2023-01-11T06:48:36.015Z,11.10
2023-01-11T06:53:38.223Z,11.00
2023-01-11T06:58:40.394Z,11.10
2023-01-11T07:03:42.208Z,11.00
2023-01-11T07:08:43.992Z,11.00
2023-01-11T07:13:46.040Z,11.00
2023-01-11T07:18:47.783Z,10.90
2023-01-11T07:23:49.618Z,10.90
2023-01-11T07:28:51.389Z,10.80
2023-01-11T07:33:53.154Z,10.70
2023-01-11T07:38:54.919Z,10.70
2023-01-11T07:43:56.667Z,10.60
2023-01-11T07:48:58.450Z,10.50
2023-01-11T07:54:02.577Z,10.50
2023-01-11T07:59:04.318Z,10.50
2023-01-11T08:04:06.064Z,10.40
2023-01-11T08:09:09.934Z,10.40
2023-01-11T08:14:30.157Z,10.40
2023-01-11T08:19:32.113Z,10.30
2023-01-11T08:24:36.738Z,10.30
2023-01-11T08:29:39.825Z,10.20
2023-01-11T08:34:41.737Z,10.10
2023-01-11T08:39:43.693Z,10.10
2023-01-11T08:44:45.450Z,10.00
2023-01-11T08:49:47.222Z,10.00
2023-01-11T08:54:49.926Z,10.00
2023-01-11T08:59:51.685Z,9.90
2023-01-11T09:04:53.474Z,9.90
2023-01-11T09:09:55.230Z,9.80
2023-01-11T09:14:57.140Z,9.80
2023-01-11T09:19:58.887Z,9.80
2023-01-11T09:25:00.831Z,9.90
2023-01-11T09:30:02.780Z,9.80
2023-01-11T09:35:05.278Z,9.80
2023-01-11T09:40:30.983Z,9.80
2023-01-11T09:45:34.514Z,9.90
2023-01-11T09:50:41.804Z,10.10
2023-01-11T09:55:46.926Z,10.10
2023-01-11T10:01:10.512Z,10.20
2023-01-11T10:06:39.085Z,10.20
2023-01-11T10:18:41.378Z,10.30
2023-01-11T10:23:49.581Z,10.40
2023-01-11T10:29:18.755Z,10.40
2023-01-11T10:34:41.331Z,10.50
2023-01-11T10:40:01.963Z,10.50
2023-01-11T10:45:17.150Z,10.60
2023-01-11T10:50:48.930Z,10.60
2023-01-11T10:56:35.751Z,10.70
2023-01-11T11:02:26.378Z,10.70
2023-01-11T11:08:00.029Z,10.80
2023-01-11T11:13:30.888Z,10.90
2023-01-11T11:18:32.561Z,11.00
2023-01-11T11:23:36.367Z,11.00
2023-01-11T11:28:38.178Z,11.10
2023-01-11T11:33:41.180Z,11.20
2023-01-11T11:39:24.342Z,11.20
2023-01-11T11:44:29.289Z,11.40
2023-01-11T11:49:36.191Z,11.50
2023-01-11T11:54:53.362Z,11.40
2023-01-11T12:00:24.805Z,11.30
2023-01-11T12:05:26.738Z,11.30
2023-01-11T12:10:30.713Z,11.30
2023-01-11T12:15:34.659Z,11.30
2023-01-11T12:20:41.046Z,11.30
2023-01-11T12:25:57.777Z,11.30
2023-01-11T12:31:19.048Z,11.20
2023-01-11T12:36:40.833Z,11.20
2023-01-11T12:42:06.773Z,11.10
2023-01-11T12:47:41.444Z,11.10
2023-01-11T12:53:27.583Z,11.10
2023-01-11T12:58:55.620Z,11.30
2023-01-11T13:04:33.044Z,11.30
2023-01-11T13:09:46.851Z,11.60
2023-01-11T13:15:03.745Z,11.60
2023-01-11T13:20:59.933Z,11.80
2023-01-11T13:26:22.976Z,11.60
2023-01-11T13:31:26.023Z,11.60
2023-01-11T13:36:38.844Z,11.70
2023-01-11T13:41:47.319Z,11.80
2023-01-11T13:46:56.463Z,11.50
2023-01-11T13:52:12.814Z,11.60
2023-01-11T13:57:25.493Z,11.20
2023-01-11T14:02:52.813Z,11.10
2023-01-11T14:08:16.528Z,11.00
2023-01-11T14:13:56.794Z,10.80
2023-01-11T14:19:22.330Z,10.60
2023-01-11T14:24:27.047Z,12.50
2023-01-11T14:30:19.502Z,13.80
2023-01-11T14:35:40.023Z,14.40
2023-01-11T14:41:03.493Z,14.20
2023-01-11T14:46:37.202Z,12.00
2023-01-11T14:52:03.262Z,10.90
2023-01-11T14:57:05.004Z,13.20
2023-01-11T15:02:11.250Z,11.30
2023-01-11T15:07:23.575Z,10.90
2023-01-11T15:12:39.366Z,10.90
2023-01-11T15:18:00.563Z,10.70
2023-01-11T15:23:04.954Z,10.70
2023-01-11T15:28:45.516Z,10.50
2023-01-11T15:33:49.032Z,10.30
2023-01-11T15:39:05.931Z,10.20
2023-01-11T15:44:20.428Z,10.20
2023-01-11T15:49:41.027Z,10.20
2023-01-11T15:55:01.367Z,10.10
2023-01-11T16:00:40.699Z,10.00
2023-01-11T16:06:04.144Z,9.90
2023-01-11T16:11:18.835Z,9.90
2023-01-11T16:16:33.377Z,9.90
2023-01-11T16:21:39.872Z,10.00
2023-01-11T16:26:42.145Z,10.00
2023-01-11T16:31:58.945Z,10.00
2023-01-11T16:37:00.939Z,9.90
2023-01-11T16:42:06.771Z,10.00
2023-01-11T16:47:18.499Z,9.90
2023-01-11T16:52:31.480Z,9.90
2023-01-11T16:57:39.690Z,9.80
2023-01-11T17:02:43.617Z,9.90
2023-01-11T17:07:45.467Z,9.80
2023-01-11T17:12:57.986Z,9.90
2023-01-11T17:18:04.496Z,9.90
2023-01-11T17:23:06.586Z,9.80
2023-01-11T17:28:18.700Z,9.80
2023-01-11T17:33:33.968Z,9.80
2023-01-11T17:38:36.083Z,9.90
2023-01-11T17:43:56.479Z,9.90
2023-01-11T17:48:59.945Z,9.80
2023-01-11T17:54:02.406Z,9.90
2023-01-11T17:59:24.749Z,9.90
2023-01-11T18:04:28.017Z,9.80
2023-01-11T18:09:32.155Z,9.80
2023-01-11T18:14:40.150Z,9.80
2023-01-11T18:19:42.769Z,9.80
2023-01-11T18:24:53.693Z,9.80
2023-01-11T18:29:57.722Z,9.80
2023-01-11T18:35:00.776Z,9.80
2023-01-11T18:40:03.831Z,9.80
2023-01-11T18:45:06.332Z,9.80
2023-01-11T18:50:10.905Z,9.80
2023-01-11T18:55:14.561Z,9.80
2023-01-11T19:00:18.720Z,9.80
2023-01-11T19:05:21.015Z,9.80
2023-01-11T19:10:23.720Z,9.80
2023-01-11T19:15:25.802Z,9.80
2023-01-11T19:20:27.616Z,9.80
2023-01-11T19:25:29.815Z,9.80
2023-01-11T19:30:32.111Z,9.80
2023-01-11T19:35:34.080Z,9.80
2023-01-11T19:40:35.898Z,9.80
2023-01-11T19:45:38.923Z,9.80
2023-01-11T19:50:40.713Z,9.90
2023-01-11T19:55:42.789Z,9.80
2023-01-11T20:00:44.626Z,9.80
2023-01-11T20:05:46.463Z,9.80
2023-01-11T20:10:50.466Z,9.80
2023-01-11T20:15:52.475Z,9.80
2023-01-11T20:20:56.377Z,9.70
2023-01-11T20:26:06.702Z,9.80
2023-01-11T20:31:08.637Z,9.80
2023-01-11T20:36:16.361Z,9.70
2023-01-11T20:41:39.475Z,9.70
2023-01-11T20:46:41.404Z,9.70
2023-01-11T20:51:44.040Z,9.70
2023-01-11T20:56:49.184Z,9.70
2023-01-11T21:01:51.120Z,9.80
2023-01-11T21:06:52.943Z,9.80
2023-01-11T21:11:55.171Z,9.80
2023-01-11T21:16:58.336Z,9.70
2023-01-11T21:22:00.133Z,9.70
2023-01-11T21:27:02.364Z,9.60
2023-01-11T21:32:04.553Z,9.50
2023-01-11T21:37:06.508Z,9.50
2023-01-11T21:42:08.501Z,9.60
2023-01-11T21:47:11.745Z,9.70
2023-01-11T21:52:13.604Z,9.70
2023-01-11T21:57:15.400Z,9.70
2023-01-11T22:02:17.181Z,9.70
2023-01-11T22:07:19.035Z,9.60
2023-01-11T22:12:20.897Z,9.50
2023-01-11T22:17:22.781Z,9.40
2023-01-11T22:22:24.609Z,9.30
2023-01-11T22:27:26.480Z,9.30
2023-01-11T22:32:31.242Z,9.20
2023-01-11T22:37:33.197Z,9.20
2023-01-11T22:42:34.989Z,9.10
2023-01-11T22:47:36.758Z,9.10
2023-01-11T22:52:38.601Z,9.10
2023-01-11T22:57:40.473Z,9.00
2023-01-11T23:02:42.538Z,9.00
2023-01-11T23:07:44.653Z,8.90
2023-01-11T23:13:05.072Z,9.00
2023-01-11T23:18:08.537Z,9.00
2023-01-11T23:23:10.671Z,9.00
2023-01-11T23:28:12.484Z,9.00
2023-01-11T23:33:14.294Z,9.10
2023-01-11T23:38:16.304Z,9.10
2023-01-11T23:43:18.103Z,9.10
2023-01-11T23:48:20.181Z,9.10
2023-01-11T23:53:23.205Z,9.10
2023-01-11T23:58:25.190Z,9.20
